createdAt,value
2019-02-15T00:00:51.206Z,8.00
2019-02-15T00:01:51.193Z,8.00
2019-02-15T00:02:51.214Z,8.00
2019-02-15T00:03:51.173Z,8.00
2019-02-15T00:04:51.158Z,8.00
2019-02-15T00:05:51.152Z,8.00
2019-02-15T00:06:51.138Z,8.00
2019-02-15T00:08:50.125Z,8.00
2019-02-15T00:09:51.109Z,8.00
2019-02-15T00:10:51.098Z,8.00
2019-02-15T00:11:51.088Z,8.00
2019-02-15T00:12:51.075Z,8.00
2019-02-15T00:13:51.089Z,8.00
2019-02-15T00:14:51.932Z,8.00
2019-02-15T00:15:51.036Z,8.00
2019-02-15T00:16:51.034Z,8.00
2019-02-15T00:17:51.025Z,8.00
2019-02-15T00:18:51.042Z,8.00
2019-02-15T00:19:51.013Z,8.00
2019-02-15T00:20:50.993Z,4.00
2019-02-15T00:22:49.961Z,8.00
2019-02-15T00:23:50.964Z,8.00
2019-02-15T00:25:49.933Z,8.00
2019-02-15T00:26:50.918Z,8.00
2019-02-15T00:27:50.901Z,8.00
2019-02-15T00:28:50.904Z,8.00
2019-02-15T00:29:50.922Z,8.00
2019-02-15T00:30:50.874Z,8.00
2019-02-15T00:31:50.864Z,8.00
2019-02-15T00:32:50.855Z,4.00
2019-02-15T00:33:50.842Z,4.00
2019-02-15T00:34:50.904Z,8.00
2019-02-15T00:35:50.818Z,8.00
2019-02-15T00:36:50.814Z,8.00
2019-02-15T00:37:50.810Z,8.00
2019-02-15T00:38:50.789Z,8.00
2019-02-15T00:39:50.790Z,8.00
2019-02-15T00:40:50.799Z,8.00
2019-02-15T00:41:50.756Z,4.00
2019-02-15T00:42:50.744Z,8.00
2019-02-15T00:43:50.734Z,8.00
2019-02-15T00:44:50.723Z,8.00
2019-02-15T00:45:50.720Z,4.00
2019-02-15T00:46:50.709Z,8.00
2019-02-15T00:47:50.690Z,8.00
2019-02-15T00:48:50.688Z,4.00
2019-02-15T00:49:50.676Z,8.00
2019-02-15T00:50:50.659Z,4.00
2019-02-15T00:51:50.658Z,4.00
2019-02-15T00:52:50.638Z,4.00
2019-02-15T00:53:50.627Z,4.00
2019-02-15T00:55:49.613Z,8.00
2019-02-15T00:56:50.596Z,8.00
2019-02-15T00:57:50.588Z,4.00
2019-02-15T00:58:50.577Z,8.00
2019-02-15T00:59:50.562Z,4.00
2019-02-15T01:00:50.559Z,4.00
2019-02-15T01:01:50.538Z,8.00
2019-02-15T01:02:50.534Z,8.00
2019-02-15T01:03:50.524Z,4.00
2019-02-15T01:04:50.514Z,4.00
2019-02-15T01:05:50.506Z,4.00
2019-02-15T01:06:50.492Z,4.00
2019-02-15T01:07:50.479Z,8.00
2019-02-15T01:08:50.464Z,8.00
2019-02-15T01:09:50.478Z,4.00
2019-02-15T01:10:50.437Z,4.00
2019-02-15T01:11:50.438Z,4.00
2019-02-15T01:12:50.413Z,8.00
2019-02-15T01:13:50.414Z,4.00
2019-02-15T01:14:52.912Z,4.00
2019-02-15T01:15:50.384Z,4.00
2019-02-15T01:16:50.383Z,4.00
2019-02-15T01:17:50.368Z,8.00
2019-02-15T01:18:50.356Z,4.00
2019-02-15T01:19:50.376Z,8.00
2019-02-15T01:20:50.332Z,8.00
2019-02-15T01:21:50.328Z,4.00
2019-02-15T01:22:50.324Z,4.00
2019-02-15T01:23:50.302Z,8.00
2019-02-15T01:24:50.289Z,8.00
2019-02-15T01:25:52.906Z,4.00
2019-02-15T01:26:50.266Z,4.00
2019-02-15T01:27:50.260Z,4.00
2019-02-15T01:28:50.246Z,8.00
2019-02-15T01:29:50.232Z,4.00
2019-02-15T01:30:50.228Z,8.00
2019-02-15T01:31:50.213Z,4.00
2019-02-15T01:32:50.906Z,4.00
2019-02-15T01:33:50.200Z,4.00
2019-02-15T01:34:50.183Z,4.00
2019-02-15T01:35:50.176Z,4.00
2019-02-15T01:36:50.156Z,4.00
2019-02-15T01:37:50.144Z,4.00
2019-02-15T01:38:50.146Z,4.00
2019-02-15T01:39:50.127Z,4.00
2019-02-15T01:40:50.122Z,4.00
2019-02-15T01:41:49.114Z,4.00
2019-02-15T01:42:50.094Z,4.00
2019-02-15T01:43:50.119Z,4.00
2019-02-15T01:44:50.074Z,4.00
2019-02-15T01:45:50.062Z,4.00
2019-02-15T01:46:49.050Z,4.00
2019-02-15T01:47:50.034Z,4.00
2019-02-15T01:48:50.063Z,4.00
2019-02-15T01:49:50.030Z,8.00
2019-02-15T01:50:50.006Z,4.00
2019-02-15T01:51:49.997Z,4.00
2019-02-15T01:52:49.996Z,4.00
2019-02-15T01:53:49.977Z,4.00
2019-02-15T01:54:49.964Z,4.00
2019-02-15T01:55:49.959Z,4.00
2019-02-15T01:56:49.940Z,4.00
2019-02-15T01:57:49.988Z,4.00
2019-02-15T01:58:49.947Z,4.00
2019-02-15T01:59:49.904Z,4.00
2019-02-15T02:00:49.892Z,4.00
2019-02-15T02:01:49.886Z,4.00
2019-02-15T02:02:49.906Z,4.00
2019-02-15T02:03:49.864Z,4.00
2019-02-15T02:04:49.857Z,4.00
2019-02-15T02:05:49.838Z,4.00
2019-02-15T02:06:49.829Z,4.00
2019-02-15T02:07:49.816Z,4.00
2019-02-15T02:08:49.811Z,4.00
2019-02-15T02:09:49.834Z,4.00
2019-02-15T02:10:49.780Z,4.00
2019-02-15T02:11:50.395Z,4.00
2019-02-15T02:12:49.766Z,4.00
2019-02-15T02:13:50.124Z,4.00
2019-02-15T02:14:49.773Z,4.00
2019-02-15T02:15:49.735Z,4.00
2019-02-15T02:16:49.724Z,4.00
2019-02-15T02:17:49.756Z,4.00
2019-02-15T02:18:49.720Z,4.00
2019-02-15T02:19:49.695Z,4.00
2019-02-15T02:20:49.677Z,4.00
2019-02-15T02:21:49.674Z,4.00
2019-02-15T02:22:49.665Z,4.00
2019-02-15T02:23:49.658Z,4.00
2019-02-15T02:24:50.381Z,4.00
2019-02-15T02:25:49.632Z,4.00
2019-02-15T02:26:49.620Z,4.00
2019-02-15T02:27:49.602Z,4.00
2019-02-15T02:28:49.599Z,4.00
2019-02-15T02:29:49.615Z,4.00
2019-02-15T02:30:49.573Z,4.00
2019-02-15T02:31:49.567Z,4.00
2019-02-15T02:32:49.543Z,4.00
2019-02-15T02:33:49.575Z,4.00
2019-02-15T02:34:49.520Z,4.00
2019-02-15T02:35:49.520Z,4.00
2019-02-15T02:36:49.499Z,4.00
2019-02-15T02:37:49.493Z,4.00
2019-02-15T02:38:52.385Z,40.00
2019-02-15T02:39:49.491Z,52.00
2019-02-15T02:40:50.387Z,56.00
2019-02-15T02:41:49.445Z,56.00
2019-02-15T02:42:49.433Z,56.00
2019-02-15T02:43:59.225Z,56.00
2019-02-15T02:44:49.416Z,48.00
2019-02-15T02:45:49.401Z,48.00
2019-02-15T02:46:49.405Z,48.00
2019-02-15T02:47:49.382Z,48.00
2019-02-15T02:48:49.371Z,48.00
2019-02-15T02:49:49.361Z,48.00
2019-02-15T02:50:49.350Z,48.00
2019-02-15T02:51:49.343Z,48.00
2019-02-15T02:52:49.323Z,48.00
2019-02-15T02:53:49.323Z,48.00
2019-02-15T02:54:49.305Z,48.00
2019-02-15T02:55:49.296Z,4.00
2019-02-15T02:56:49.289Z,4.00
2019-02-15T02:57:49.267Z,4.00
2019-02-15T02:58:49.265Z,4.00
2019-02-15T02:59:49.326Z,4.00
2019-02-15T03:00:49.259Z,4.00
2019-02-15T03:01:49.229Z,4.00
2019-02-15T03:02:49.332Z,4.00
2019-02-15T03:03:48.214Z,4.00
2019-02-15T03:04:49.191Z,4.00
2019-02-15T03:05:49.213Z,4.00
2019-02-15T03:06:49.181Z,4.00
2019-02-15T03:07:49.163Z,4.00
2019-02-15T03:08:49.146Z,4.00
2019-02-15T03:09:49.142Z,4.00
2019-02-15T03:10:49.129Z,4.00
2019-02-15T03:11:49.154Z,4.00
2019-02-15T03:12:49.107Z,4.00
2019-02-15T03:13:49.094Z,4.00
2019-02-15T03:14:49.082Z,4.00
2019-02-15T03:15:49.099Z,4.00
2019-02-15T03:16:49.066Z,4.00
2019-02-15T03:17:49.058Z,4.00
2019-02-15T03:18:49.058Z,4.00
2019-02-15T03:19:49.870Z,4.00
2019-02-15T03:20:49.095Z,4.00
2019-02-15T03:21:49.006Z,4.00
2019-02-15T03:22:49.000Z,8.00
2019-02-15T03:23:48.990Z,8.00
2019-02-15T03:24:48.984Z,4.00
2019-02-15T03:25:48.970Z,4.00
2019-02-15T03:26:48.947Z,8.00
2019-02-15T03:27:48.965Z,4.00
2019-02-15T03:28:51.872Z,4.00
2019-02-15T03:29:48.918Z,4.00
2019-02-15T03:30:48.973Z,4.00
2019-02-15T03:31:48.909Z,4.00
2019-02-15T03:32:48.881Z,4.00
2019-02-15T03:33:48.873Z,8.00
2019-02-15T03:34:48.864Z,4.00
2019-02-15T03:35:48.862Z,4.00
2019-02-15T03:36:48.881Z,4.00
2019-02-15T03:37:48.831Z,4.00
2019-02-15T03:38:48.821Z,4.00
2019-02-15T03:39:48.816Z,4.00
2019-02-15T03:40:48.800Z,4.00
2019-02-15T03:41:48.811Z,4.00
2019-02-15T03:42:48.786Z,4.00
2019-02-15T03:43:48.765Z,4.00
2019-02-15T03:44:48.756Z,4.00
2019-02-15T03:45:48.748Z,4.00
2019-02-15T03:46:48.743Z,4.00
2019-02-15T03:47:48.726Z,4.00
2019-02-15T03:48:48.717Z,4.00
2019-02-15T03:49:48.699Z,4.00
2019-02-15T03:50:48.694Z,4.00
2019-02-15T03:51:48.687Z,4.00
2019-02-15T03:52:48.667Z,4.00
2019-02-15T03:53:49.354Z,4.00
2019-02-15T03:54:48.643Z,4.00
2019-02-15T03:55:48.636Z,4.00
2019-02-15T03:56:48.647Z,4.00
2019-02-15T03:57:48.628Z,4.00
2019-02-15T03:58:48.605Z,4.00
2019-02-15T03:59:48.591Z,4.00
2019-02-15T04:00:48.584Z,4.00
2019-02-15T04:01:48.617Z,4.00
2019-02-15T04:02:48.557Z,4.00
2019-02-15T04:03:48.552Z,4.00
2019-02-15T04:04:48.543Z,4.00
2019-02-15T04:05:48.529Z,4.00
2019-02-15T04:06:48.515Z,4.00
2019-02-15T04:07:48.544Z,4.00
2019-02-15T04:08:48.506Z,4.00
2019-02-15T04:09:48.484Z,4.00
2019-02-15T04:10:48.471Z,4.00
2019-02-15T04:11:48.457Z,4.00
2019-02-15T04:12:48.447Z,4.00
2019-02-15T04:13:48.464Z,4.00
2019-02-15T04:14:48.427Z,4.00
2019-02-15T04:15:48.417Z,4.00
2019-02-15T04:16:48.419Z,4.00
2019-02-15T04:17:48.406Z,4.00
2019-02-15T04:18:48.397Z,4.00
2019-02-15T04:19:48.371Z,4.00
2019-02-15T04:20:48.364Z,4.00
2019-02-15T04:21:48.361Z,4.00
2019-02-15T04:22:48.345Z,4.00
2019-02-15T04:23:48.334Z,4.00
2019-02-15T04:24:48.321Z,4.00
2019-02-15T04:25:48.309Z,4.00
2019-02-15T04:26:48.367Z,4.00
2019-02-15T04:27:48.327Z,4.00
2019-02-15T04:28:48.289Z,4.00
2019-02-15T04:29:48.269Z,4.00
2019-02-15T04:31:47.845Z,4.00
2019-02-15T04:32:48.261Z,4.00
2019-02-15T04:33:48.254Z,4.00
2019-02-15T04:34:48.203Z,4.00
2019-02-15T04:35:48.203Z,4.00
2019-02-15T04:36:50.847Z,4.00
2019-02-15T04:37:48.177Z,4.00
2019-02-15T04:38:48.165Z,4.00
2019-02-15T04:39:48.167Z,4.00
2019-02-15T04:40:48.145Z,4.00
2019-02-15T04:41:48.142Z,4.00
2019-02-15T04:42:48.839Z,4.00
2019-02-15T04:43:48.109Z,4.00
2019-02-15T04:44:50.841Z,4.00
2019-02-15T04:45:48.097Z,4.00
2019-02-15T04:46:50.012Z,4.00
2019-02-15T04:47:47.071Z,4.00
2019-02-15T04:48:48.062Z,4.00
2019-02-15T04:49:48.059Z,4.00
2019-02-15T04:50:48.041Z,4.00
2019-02-15T04:51:48.023Z,4.00
2019-02-15T04:52:48.057Z,4.00
2019-02-15T04:53:48.008Z,4.00
2019-02-15T04:54:47.999Z,4.00
2019-02-15T04:55:47.991Z,4.00
2019-02-15T04:56:47.975Z,4.00
2019-02-15T04:57:47.983Z,4.00
2019-02-15T04:58:47.957Z,4.00
2019-02-15T04:59:47.973Z,4.00
2019-02-15T05:00:48.831Z,4.00
2019-02-15T05:01:47.920Z,4.00
2019-02-15T05:02:47.917Z,4.00
2019-02-15T05:03:47.908Z,4.00
2019-02-15T05:04:47.942Z,4.00
2019-02-15T05:05:47.880Z,4.00
2019-02-15T05:06:47.919Z,4.00
2019-02-15T05:07:47.859Z,4.00
2019-02-15T05:08:47.855Z,4.00
2019-02-15T05:09:47.833Z,4.00
2019-02-15T05:10:47.885Z,4.00
2019-02-15T05:11:47.812Z,4.00
2019-02-15T05:12:47.841Z,4.00
2019-02-15T05:13:47.796Z,4.00
2019-02-15T05:14:53.142Z,4.00
2019-02-15T05:15:47.768Z,4.00
2019-02-15T05:16:47.758Z,4.00
2019-02-15T05:17:47.780Z,4.00
2019-02-15T05:18:48.331Z,4.00
2019-02-15T05:19:47.735Z,4.00
2019-02-15T05:20:47.714Z,4.00
2019-02-15T05:21:47.704Z,4.00
2019-02-15T05:22:47.707Z,4.00
2019-02-15T05:23:47.692Z,4.00
2019-02-15T05:25:46.664Z,4.00
2019-02-15T05:26:47.653Z,4.00
2019-02-15T05:27:47.641Z,4.00
2019-02-15T05:28:47.639Z,4.00
2019-02-15T05:29:47.633Z,4.00
2019-02-15T05:30:47.618Z,4.00
2019-02-15T05:31:47.606Z,4.00
2019-02-15T05:32:47.614Z,4.00
2019-02-15T05:33:47.574Z,4.00
2019-02-15T05:34:47.573Z,4.00
2019-02-15T05:36:46.544Z,4.00
2019-02-15T05:37:47.552Z,4.00
2019-02-15T05:38:47.539Z,4.00
2019-02-15T05:39:47.516Z,4.00
2019-02-15T05:40:47.500Z,4.00
2019-02-15T05:41:48.321Z,4.00
2019-02-15T05:42:48.316Z,4.00
2019-02-15T05:43:47.548Z,4.00
2019-02-15T05:44:47.462Z,8.00
2019-02-15T05:46:46.474Z,4.00
2019-02-15T05:47:47.422Z,4.00
2019-02-15T05:48:47.414Z,4.00
2019-02-15T05:49:47.410Z,4.00
2019-02-15T05:50:47.426Z,4.00
2019-02-15T05:51:47.669Z,4.00
2019-02-15T05:52:47.372Z,4.00
2019-02-15T05:53:47.361Z,8.00
2019-02-15T05:54:47.346Z,8.00
2019-02-15T05:55:47.363Z,8.00
2019-02-15T05:56:47.372Z,8.00
2019-02-15T05:57:47.326Z,4.00
2019-02-15T05:58:47.314Z,8.00
2019-02-15T05:59:47.304Z,8.00
2019-02-15T06:00:47.300Z,12.00
2019-02-15T06:01:47.287Z,8.00
2019-02-15T06:02:47.305Z,12.00
2019-02-15T06:03:47.351Z,12.00
2019-02-15T06:04:47.260Z,44.00
2019-02-15T06:05:47.230Z,56.00
2019-02-15T06:06:47.246Z,64.00
2019-02-15T06:07:47.262Z,64.00
2019-02-15T06:08:47.219Z,68.00
2019-02-15T06:09:47.190Z,68.00
2019-02-15T06:10:47.812Z,76.00
2019-02-15T06:11:47.259Z,76.00
2019-02-15T06:12:47.159Z,80.00
2019-02-15T06:13:47.197Z,84.00
2019-02-15T06:14:47.354Z,92.00
2019-02-15T06:15:47.124Z,100.00
2019-02-15T06:16:47.142Z,104.00
2019-02-15T06:17:47.098Z,112.00
2019-02-15T06:18:47.099Z,120.00
2019-02-15T06:19:47.084Z,128.00
2019-02-15T06:20:47.095Z,136.00
2019-02-15T06:21:47.087Z,144.00
2019-02-15T06:22:47.050Z,152.00
2019-02-15T06:23:47.037Z,160.00
2019-02-15T06:24:49.812Z,172.00
2019-02-15T06:25:47.018Z,184.00
2019-02-15T06:26:47.082Z,192.00
2019-02-15T06:27:46.996Z,204.00
2019-02-15T06:28:46.986Z,216.00
2019-02-15T06:29:48.042Z,228.00
2019-02-15T06:30:46.958Z,240.00
2019-02-15T06:31:47.122Z,252.00
2019-02-15T06:32:46.995Z,268.00
2019-02-15T06:33:46.930Z,280.00
2019-02-15T06:34:46.920Z,292.00
2019-02-15T06:35:46.916Z,304.00
2019-02-15T06:36:49.805Z,320.00
2019-02-15T06:37:46.884Z,332.00
2019-02-15T06:38:46.898Z,344.00
2019-02-15T06:39:46.902Z,356.00
2019-02-15T06:40:46.852Z,368.00
2019-02-15T06:41:46.839Z,380.00
2019-02-15T06:42:47.080Z,392.00
2019-02-15T06:43:46.830Z,400.00
2019-02-15T06:44:46.826Z,412.00
2019-02-15T06:45:46.982Z,420.00
2019-02-15T06:46:47.036Z,432.00
2019-02-15T06:47:47.068Z,440.00
2019-02-15T06:48:46.776Z,452.00
2019-02-15T06:49:46.760Z,460.00
2019-02-15T06:51:45.759Z,480.00
2019-02-15T06:52:49.301Z,492.00
2019-02-15T06:54:45.740Z,504.00
2019-02-15T06:55:46.704Z,516.00
2019-02-15T06:56:49.293Z,524.00
2019-02-15T06:57:46.667Z,532.00
2019-02-15T06:58:46.660Z,544.00
2019-02-15T06:59:46.686Z,548.00
2019-02-15T07:00:46.642Z,560.00
2019-02-15T07:01:49.293Z,564.00
2019-02-15T07:02:46.616Z,572.00
2019-02-15T07:03:46.632Z,580.00
2019-02-15T07:04:46.597Z,588.00
2019-02-15T07:05:49.296Z,600.00
2019-02-15T07:06:46.577Z,600.00
2019-02-15T07:07:46.573Z,612.00
2019-02-15T07:08:46.573Z,620.00
2019-02-15T07:09:46.544Z,624.00
2019-02-15T07:10:46.577Z,632.00
2019-02-15T07:11:46.518Z,636.00
2019-02-15T07:12:46.504Z,644.00
2019-02-15T07:13:46.498Z,648.00
2019-02-15T07:14:46.491Z,656.00
2019-02-15T07:15:46.506Z,664.00
2019-02-15T07:16:46.456Z,668.00
2019-02-15T07:17:46.450Z,680.00
2019-02-15T07:18:46.468Z,688.00
2019-02-15T07:19:46.434Z,692.00
2019-02-15T07:20:46.427Z,700.00
2019-02-15T07:21:46.408Z,704.00
2019-02-15T07:22:46.406Z,712.00
2019-02-15T07:23:46.420Z,720.00
2019-02-15T07:24:47.293Z,724.00
2019-02-15T07:25:49.282Z,732.00
2019-02-15T07:26:45.555Z,740.00
2019-02-15T07:27:46.340Z,744.00
2019-02-15T07:28:45.355Z,752.00
2019-02-15T07:29:46.324Z,756.00
2019-02-15T07:30:46.306Z,764.00
2019-02-15T07:31:46.342Z,768.00
2019-02-15T07:32:46.302Z,776.00
2019-02-15T07:33:46.280Z,780.00
2019-02-15T07:35:45.246Z,792.00
2019-02-15T07:36:47.799Z,800.00
2019-02-15T07:37:46.275Z,804.00
2019-02-15T07:38:46.232Z,808.00
2019-02-15T07:39:46.786Z,816.00
2019-02-15T07:40:46.198Z,820.00
2019-02-15T07:41:46.196Z,828.00
2019-02-15T07:42:46.172Z,828.00
2019-02-15T07:43:46.170Z,832.00
2019-02-15T07:44:46.156Z,840.00
2019-02-15T07:45:46.202Z,844.00
2019-02-15T07:46:46.131Z,848.00
2019-02-15T07:47:46.129Z,852.00
2019-02-15T07:48:46.119Z,860.00
2019-02-15T07:49:46.101Z,864.00
2019-02-15T07:50:46.088Z,868.00
2019-02-15T07:51:46.116Z,872.00
2019-02-15T07:52:46.067Z,876.00
2019-02-15T07:53:46.067Z,876.00
2019-02-15T07:54:46.055Z,884.00
2019-02-15T07:55:46.033Z,888.00
2019-02-15T07:56:46.022Z,892.00
2019-02-15T07:57:46.063Z,896.00
2019-02-15T07:58:46.000Z,900.00
2019-02-15T07:59:45.993Z,904.00
2019-02-15T08:00:45.987Z,908.00
2019-02-15T08:01:45.971Z,912.00
2019-02-15T08:02:45.962Z,916.00
2019-02-15T08:03:45.987Z,924.00
2019-02-15T08:04:45.970Z,924.00
2019-02-15T08:05:45.980Z,932.00
2019-02-15T08:06:45.921Z,932.00
2019-02-15T08:07:45.906Z,940.00
2019-02-15T08:08:45.896Z,940.00
2019-02-15T08:09:45.880Z,944.00
2019-02-15T08:10:45.891Z,948.00
2019-02-15T08:11:45.897Z,952.00
2019-02-15T08:12:45.847Z,956.00
2019-02-15T08:13:45.835Z,956.00
2019-02-15T08:14:45.831Z,960.00
2019-02-15T08:15:51.484Z,964.00
2019-02-15T08:16:45.828Z,968.00
2019-02-15T08:17:45.833Z,972.00
2019-02-15T08:18:45.788Z,972.00
2019-02-15T08:19:45.776Z,976.00
2019-02-15T08:20:45.781Z,980.00
2019-02-15T08:21:45.763Z,984.00
2019-02-15T08:22:45.748Z,992.00
2019-02-15T08:23:45.792Z,996.00
2019-02-15T08:24:45.726Z,1000.00
2019-02-15T08:25:45.718Z,1012.00
2019-02-15T08:26:45.695Z,1016.00
2019-02-15T08:27:45.696Z,1028.00
2019-02-15T08:29:44.690Z,1048.00
2019-02-15T08:30:45.697Z,1060.00
2019-02-15T08:31:45.639Z,1072.00
2019-02-15T08:32:45.633Z,1084.00
2019-02-15T08:33:45.618Z,1092.00
2019-02-15T08:34:45.602Z,1104.00
2019-02-15T08:35:45.608Z,1116.00
2019-02-15T08:36:45.625Z,1128.00
2019-02-15T08:37:45.571Z,1140.00
2019-02-15T08:38:45.571Z,1148.00
2019-02-15T08:39:45.549Z,1164.00
2019-02-15T08:40:45.573Z,1176.00
2019-02-15T08:42:00.602Z,1188.00
2019-02-15T08:42:45.519Z,1200.00
2019-02-15T08:43:46.259Z,1212.00
2019-02-15T08:44:45.509Z,1224.00
2019-02-15T08:45:45.491Z,1236.00
2019-02-15T08:46:45.496Z,1248.00
2019-02-15T08:47:45.799Z,1256.00
2019-02-15T08:48:46.465Z,1268.00
2019-02-15T08:49:45.471Z,1280.00
2019-02-15T08:50:45.429Z,1292.00
2019-02-15T08:51:48.273Z,1304.00
2019-02-15T08:52:45.416Z,1316.00
2019-02-15T08:53:45.592Z,1324.00
2019-02-15T08:54:48.256Z,1336.00
2019-02-15T08:55:45.382Z,1344.00
2019-02-15T08:56:45.371Z,1352.00
2019-02-15T08:57:45.356Z,1360.00
2019-02-15T08:58:45.372Z,1368.00
2019-02-15T08:59:45.330Z,1372.00
2019-02-15T09:00:45.692Z,1372.00
2019-02-15T09:01:45.311Z,1368.00
2019-02-15T09:02:45.307Z,1388.00
2019-02-15T09:03:45.542Z,1396.00
2019-02-15T09:04:47.765Z,1404.00
2019-02-15T09:05:45.266Z,1408.00
2019-02-15T09:06:45.257Z,1412.00
2019-02-15T09:07:45.258Z,1420.00
2019-02-15T09:08:45.236Z,1428.00
2019-02-15T09:09:45.265Z,1428.00
2019-02-15T09:10:45.230Z,1436.00
2019-02-15T09:11:45.205Z,1444.00
2019-02-15T09:12:45.192Z,1448.00
2019-02-15T09:13:45.188Z,1452.00
2019-02-15T09:14:45.177Z,1460.00
2019-02-15T09:15:45.207Z,1464.00
2019-02-15T09:16:45.160Z,1472.00
2019-02-15T09:17:45.143Z,1476.00
2019-02-15T09:18:45.130Z,1480.00
2019-02-15T09:19:45.120Z,1484.00
2019-02-15T09:20:45.155Z,1488.00
2019-02-15T09:21:45.122Z,1492.00
2019-02-15T09:22:45.083Z,1496.00
2019-02-15T09:23:45.746Z,1504.00
2019-02-15T09:24:45.068Z,1504.00
2019-02-15T09:25:45.051Z,1512.00
2019-02-15T09:26:45.096Z,1508.00
2019-02-15T09:27:45.031Z,1512.00
2019-02-15T09:28:45.038Z,1480.00
2019-02-15T09:29:45.013Z,1508.00
2019-02-15T09:30:45.005Z,1528.00
2019-02-15T09:31:44.990Z,1536.00
2019-02-15T09:32:45.005Z,1536.00
2019-02-15T09:33:44.982Z,1540.00
2019-02-15T09:34:44.961Z,1540.00
2019-02-15T09:35:44.947Z,1540.00
2019-02-15T09:36:44.954Z,1544.00
2019-02-15T09:37:44.922Z,1548.00
2019-02-15T09:38:44.924Z,1552.00
2019-02-15T09:39:44.918Z,1556.00
2019-02-15T09:40:44.898Z,1556.00
2019-02-15T09:41:44.919Z,1560.00
2019-02-15T09:42:44.870Z,1560.00
2019-02-15T09:43:44.855Z,1564.00
2019-02-15T09:44:44.845Z,1560.00
2019-02-15T09:45:44.837Z,1568.00
2019-02-15T09:46:44.835Z,1564.00
2019-02-15T09:47:44.975Z,1568.00
2019-02-15T09:48:44.806Z,1568.00
2019-02-15T09:49:46.733Z,1572.00
2019-02-15T09:50:44.781Z,1576.00
2019-02-15T09:51:45.237Z,1576.00
2019-02-15T09:52:44.758Z,1580.00
2019-02-15T09:53:44.773Z,1576.00
2019-02-15T09:54:44.743Z,1580.00
2019-02-15T09:55:44.737Z,1584.00
2019-02-15T09:56:44.881Z,1584.00
2019-02-15T09:57:44.704Z,1588.00
2019-02-15T09:58:44.750Z,1588.00
2019-02-15T09:59:44.691Z,1588.00
2019-02-15T10:00:44.672Z,1592.00
2019-02-15T10:01:45.240Z,1588.00
2019-02-15T10:02:44.665Z,1592.00
2019-02-15T10:03:44.640Z,1596.00
2019-02-15T10:04:43.687Z,1600.00
2019-02-15T10:05:44.614Z,1600.00
2019-02-15T10:06:44.609Z,1604.00
2019-02-15T10:07:44.596Z,1604.00
2019-02-15T10:08:44.595Z,1604.00
2019-02-15T10:09:44.619Z,1604.00
2019-02-15T10:10:44.561Z,1604.00
2019-02-15T10:11:44.553Z,1608.00
2019-02-15T10:12:44.539Z,1616.00
2019-02-15T10:13:44.529Z,1620.00
2019-02-15T10:14:44.571Z,1620.00
2019-02-15T10:15:44.510Z,1620.00
2019-02-15T10:16:44.548Z,1620.00
2019-02-15T10:17:44.487Z,1624.00
2019-02-15T10:18:44.475Z,1620.00
2019-02-15T10:19:44.473Z,1620.00
2019-02-15T10:20:44.512Z,1616.00
2019-02-15T10:21:44.439Z,1616.00
2019-02-15T10:22:44.441Z,1612.00
2019-02-15T10:23:44.423Z,1616.00
2019-02-15T10:24:44.421Z,1616.00
2019-02-15T10:26:43.418Z,1616.00
2019-02-15T10:27:44.420Z,1616.00
2019-02-15T10:28:44.366Z,1620.00
2019-02-15T10:29:44.359Z,1616.00
2019-02-15T10:30:44.343Z,1620.00
2019-02-15T10:31:44.347Z,1616.00
2019-02-15T10:32:44.313Z,1616.00
2019-02-15T10:33:44.377Z,1608.00
2019-02-15T10:34:44.321Z,1608.00
2019-02-15T10:35:44.299Z,1612.00
2019-02-15T10:36:44.285Z,1616.00
2019-02-15T10:37:44.268Z,1628.00
2019-02-15T10:38:44.261Z,1632.00
2019-02-15T10:39:44.285Z,1640.00
2019-02-15T10:40:44.250Z,1644.00
2019-02-15T10:41:44.225Z,1652.00
2019-02-15T10:42:44.209Z,1652.00
2019-02-15T10:43:44.236Z,1660.00
2019-02-15T10:44:44.235Z,1664.00
2019-02-15T10:45:44.225Z,1684.00
2019-02-15T10:46:44.169Z,1796.00
2019-02-15T10:47:44.759Z,1952.00
2019-02-15T10:48:44.150Z,2004.00
2019-02-15T10:49:44.178Z,2036.00
2019-02-15T10:50:44.155Z,2064.00
2019-02-15T10:51:44.121Z,1980.00
2019-02-15T10:52:44.169Z,1812.00
2019-02-15T10:53:44.099Z,1720.00
2019-02-15T10:54:44.084Z,1720.00
2019-02-15T10:55:44.720Z,1716.00
2019-02-15T10:56:44.067Z,1720.00
2019-02-15T10:57:44.043Z,1716.00
2019-02-15T10:58:44.127Z,1716.00
2019-02-15T10:59:44.035Z,1708.00
2019-02-15T11:00:44.018Z,1692.00
2019-02-15T11:01:44.005Z,1692.00
2019-02-15T11:02:43.997Z,1688.00
2019-02-15T11:03:43.986Z,1696.00
2019-02-15T11:04:44.045Z,1708.00
2019-02-15T11:05:43.708Z,1712.00
2019-02-15T11:06:43.964Z,1704.00
2019-02-15T11:07:43.942Z,1700.00
2019-02-15T11:08:44.257Z,1680.00
2019-02-15T11:09:43.919Z,1664.00
2019-02-15T11:10:46.713Z,1660.00
2019-02-15T11:11:43.901Z,1660.00
2019-02-15T11:12:43.945Z,1656.00
2019-02-15T11:13:43.892Z,1656.00
2019-02-15T11:14:43.885Z,1652.00
2019-02-15T11:15:43.861Z,1648.00
2019-02-15T11:16:47.229Z,1648.00
2019-02-15T11:17:43.829Z,1644.00
2019-02-15T11:18:43.875Z,1644.00
2019-02-15T11:19:43.808Z,1640.00
2019-02-15T11:20:43.800Z,1632.00
2019-02-15T11:21:43.795Z,1632.00
2019-02-15T11:22:43.781Z,1628.00
2019-02-15T11:23:43.765Z,1624.00
2019-02-15T11:24:43.807Z,1624.00
2019-02-15T11:25:43.751Z,1624.00
2019-02-15T11:26:43.737Z,1620.00
2019-02-15T11:27:43.740Z,1620.00
2019-02-15T11:28:43.736Z,1616.00
2019-02-15T11:29:43.759Z,1616.00
2019-02-15T11:30:43.720Z,1620.00
2019-02-15T11:31:43.675Z,1632.00
2019-02-15T11:32:43.674Z,1628.00
2019-02-15T11:33:43.674Z,1612.00
2019-02-15T11:34:43.660Z,1608.00
2019-02-15T11:35:43.665Z,1604.00
2019-02-15T11:36:44.257Z,1608.00
2019-02-15T11:37:43.649Z,1620.00
2019-02-15T11:38:43.647Z,1636.00
2019-02-15T11:39:43.604Z,1616.00
2019-02-15T11:40:43.576Z,1592.00
2019-02-15T11:41:43.577Z,1588.00
2019-02-15T11:42:43.559Z,1584.00
2019-02-15T11:43:43.541Z,1580.00
2019-02-15T11:44:43.565Z,1576.00
2019-02-15T11:45:43.541Z,1576.00
2019-02-15T11:46:43.514Z,1576.00
2019-02-15T11:47:46.206Z,1572.00
2019-02-15T11:48:43.492Z,1572.00
2019-02-15T11:49:43.531Z,1572.00
2019-02-15T11:50:43.469Z,1572.00
2019-02-15T11:51:43.469Z,1572.00
2019-02-15T11:52:43.476Z,1572.00
2019-02-15T11:53:43.436Z,1572.00
2019-02-15T11:54:43.432Z,1568.00
2019-02-15T11:55:43.413Z,1568.00
2019-02-15T11:57:42.444Z,1564.00
2019-02-15T11:58:43.391Z,1564.00
2019-02-15T11:59:43.401Z,1564.00
2019-02-15T12:00:43.357Z,1564.00
2019-02-15T12:01:43.345Z,1564.00
2019-02-15T12:02:43.346Z,1564.00
2019-02-15T12:03:43.324Z,1564.00
2019-02-15T12:04:43.371Z,1564.00
2019-02-15T12:05:43.315Z,1568.00
2019-02-15T12:06:43.295Z,1568.00
2019-02-15T12:07:43.280Z,1568.00
2019-02-15T12:08:43.284Z,1568.00
2019-02-15T12:09:43.260Z,1572.00
2019-02-15T12:10:43.303Z,1572.00
2019-02-15T12:11:43.237Z,1568.00
2019-02-15T12:12:43.229Z,1564.00
2019-02-15T12:13:43.222Z,1568.00
2019-02-15T12:14:43.222Z,1572.00
2019-02-15T12:15:43.200Z,1572.00
2019-02-15T12:16:43.224Z,1572.00
2019-02-15T12:17:43.177Z,1572.00
2019-02-15T12:18:43.163Z,1572.00
2019-02-15T12:19:43.223Z,1572.00
2019-02-15T12:20:43.148Z,1576.00
2019-02-15T12:21:43.142Z,1576.00
2019-02-15T12:22:43.148Z,1576.00
2019-02-15T12:23:43.101Z,1572.00
2019-02-15T12:24:43.099Z,1572.00
2019-02-15T12:25:43.145Z,1572.00
2019-02-15T12:26:43.083Z,1576.00
2019-02-15T12:27:43.072Z,1576.00
2019-02-15T12:28:43.054Z,1576.00
2019-02-15T12:29:43.032Z,1576.00
2019-02-15T12:30:43.068Z,1576.00
2019-02-15T12:31:43.026Z,1580.00
2019-02-15T12:32:43.012Z,1580.00
2019-02-15T12:33:42.998Z,1580.00
2019-02-15T12:34:42.986Z,1580.00
2019-02-15T12:35:43.011Z,1580.00
2019-02-15T12:36:42.978Z,1584.00
2019-02-15T12:37:42.959Z,1576.00
2019-02-15T12:38:42.988Z,1580.00
2019-02-15T12:39:42.937Z,1584.00
2019-02-15T12:40:42.934Z,1588.00
2019-02-15T12:41:42.910Z,1584.00
2019-02-15T12:42:42.909Z,1580.00
2019-02-15T12:43:45.693Z,1584.00
2019-02-15T12:44:42.875Z,1580.00
2019-02-15T12:45:43.694Z,1580.00
2019-02-15T12:46:42.853Z,1580.00
2019-02-15T12:47:42.847Z,1576.00
2019-02-15T12:48:42.846Z,1568.00
2019-02-15T12:49:42.822Z,1568.00
2019-02-15T12:50:42.815Z,1568.00
2019-02-15T12:51:42.900Z,1564.00
2019-02-15T12:52:42.785Z,1568.00
2019-02-15T12:53:45.687Z,1568.00
2019-02-15T12:54:43.699Z,1572.00
2019-02-15T12:55:41.828Z,1568.00
2019-02-15T12:56:42.749Z,1560.00